Terminal Aerodrome Forecast
Issued by NWS Cleveland, OH

Home | Current Version | Previous Version | Graphics & Text | Print | Product List | Glossary Off
Versions: 1 2 3 4 5 6 7 8 9 10 11 12 13 14 15 16 17 18 19 20 21 22 23

000
FTUS41 KCLE 181737
TAFERI
TAF
KERI 181737Z 1818/1918 25012G20KT 2SM BR OVC004
      TEMPO 1818/1820 5SM BR OVC007
     FM182300 25010KT P6SM OVC008
     FM190300 22008KT 5SM BR OVC008
     FM191400 24008KT P6SM OVC010=

USA.gov is the U.S. government's official web portal to all federal, state and local government web resources and services.